createdAt,value
2017-09-20T00:01:46.515Z,101290.05
2017-09-20T00:04:13.354Z,101300.05
2017-09-20T00:06:40.180Z,101297.60
2017-09-20T00:09:07.017Z,101297.08
2017-09-20T00:11:34.624Z,101292.22
2017-09-20T00:14:02.255Z,101309.53
2017-09-20T00:16:29.176Z,101314.36
2017-09-20T00:18:55.984Z,101307.70
2017-09-20T00:21:22.906Z,101309.70
2017-09-20T00:23:49.756Z,101305.25
2017-09-20T00:26:16.632Z,101311.76
2017-09-20T00:28:43.510Z,101311.54
2017-09-20T00:31:10.382Z,101309.14
2017-09-20T00:33:37.280Z,101309.88
2017-09-20T00:36:04.909Z,101311.72
2017-09-20T00:38:31.802Z,101317.82
2017-09-20T00:40:58.683Z,101311.06
2017-09-20T00:43:26.317Z,101311.72
2017-09-20T00:45:53.930Z,101307.58
2017-09-20T00:48:20.788Z,101300.83
2017-09-20T00:50:48.345Z,101298.86
2017-09-20T00:53:15.251Z,101304.30
2017-09-20T00:55:42.213Z,101303.08
2017-09-20T00:58:09.241Z,101307.05
2017-09-20T01:00:36.174Z,101299.96
2017-09-20T01:03:03.190Z,101299.38
2017-09-20T01:05:30.991Z,101296.27
2017-09-20T01:07:58.218Z,101299.97
2017-09-20T01:10:25.168Z,101296.92
2017-09-20T01:12:52.363Z,101294.76
2017-09-20T01:15:19.694Z,101294.56
2017-09-20T01:17:46.796Z,101295.48
2017-09-20T01:20:31.976Z,101289.12
2017-09-20T01:23:17.120Z,101295.38
2017-09-20T01:25:45.175Z,101295.80
2017-09-20T01:28:12.785Z,101291.33
2017-09-20T01:30:39.852Z,101294.97
2017-09-20T01:33:07.051Z,101295.38
2017-09-20T01:35:33.924Z,101286.09
2017-09-20T01:38:00.940Z,101276.00
2017-09-20T01:40:27.742Z,101273.02
2017-09-20T01:42:54.722Z,101275.80
2017-09-20T01:45:22.275Z,101286.16
2017-09-20T01:47:49.059Z,101277.95
2017-09-20T01:50:16.630Z,101277.66
2017-09-20T01:52:43.491Z,101278.53
2017-09-20T01:55:10.304Z,101273.25
2017-09-20T01:57:37.178Z,101275.78
2017-09-20T02:00:04.099Z,101280.90
2017-09-20T02:02:30.950Z,101281.17
2017-09-20T02:04:58.563Z,101289.12
2017-09-20T02:07:25.408Z,101282.62
2017-09-20T02:09:52.275Z,101281.94
2017-09-20T02:12:19.092Z,101280.63
2017-09-20T02:14:45.983Z,101279.40
2017-09-20T02:17:13.565Z,101279.62
2017-09-20T02:19:41.520Z,101274.60
2017-09-20T02:22:08.363Z,101275.78
2017-09-20T02:24:35.227Z,101281.92
2017-09-20T02:27:02.083Z,101278.20
2017-09-20T02:29:28.976Z,101270.11
2017-09-20T02:31:55.828Z,101268.30
2017-09-20T02:34:22.700Z,101279.51
2017-09-20T02:36:50.328Z,101271.80
2017-09-20T02:39:17.262Z,101270.84
2017-09-20T02:41:44.857Z,101271.67
2017-09-20T02:44:11.718Z,101270.81
2017-09-20T02:46:38.564Z,101268.38
2017-09-20T02:49:05.456Z,101276.91
2017-09-20T02:51:32.402Z,101284.72
2017-09-20T02:53:59.281Z,101286.46
2017-09-20T02:56:26.151Z,101286.80
2017-09-20T02:58:53.020Z,101280.81
2017-09-20T03:01:19.885Z,101285.55
2017-09-20T03:03:46.767Z,101281.13
2017-09-20T03:06:13.599Z,101290.50
2017-09-20T03:08:40.445Z,101285.90
2017-09-20T03:11:07.309Z,101293.52
2017-09-20T03:13:34.198Z,101291.17
2017-09-20T03:16:01.036Z,101296.21
2017-09-20T03:18:27.917Z,101286.91
2017-09-20T03:20:54.769Z,101286.80
2017-09-20T03:23:21.588Z,101283.30
2017-09-20T03:25:48.417Z,101290.30
2017-09-20T03:28:15.262Z,101290.33
2017-09-20T03:30:42.111Z,101296.12
2017-09-20T03:33:08.974Z,101297.39
2017-09-20T03:35:35.828Z,101301.00
2017-09-20T03:38:02.662Z,101309.48
2017-09-20T03:40:29.502Z,101313.40
2017-09-20T03:42:57.071Z,101305.28
2017-09-20T03:45:24.722Z,101299.39
2017-09-20T03:47:51.558Z,101294.03
2017-09-20T03:50:18.392Z,101302.78
2017-09-20T03:52:45.229Z,101305.13
2017-09-20T03:55:12.064Z,101309.11
2017-09-20T03:57:38.915Z,101308.02
2017-09-20T04:00:05.782Z,101310.55
2017-09-20T04:02:32.623Z,101309.45
2017-09-20T04:04:59.462Z,101314.87
2017-09-20T04:07:26.308Z,101312.16
2017-09-20T04:09:53.898Z,101309.95
2017-09-20T04:12:21.454Z,101314.34
2017-09-20T04:14:48.299Z,101315.27
2017-09-20T04:17:15.228Z,101311.13
2017-09-20T04:19:42.048Z,101312.18
2017-09-20T04:22:09.704Z,101310.89
2017-09-20T04:24:36.566Z,101320.14
2017-09-20T04:27:03.444Z,101313.55
2017-09-20T04:29:31.039Z,101310.77
2017-09-20T04:31:58.672Z,101309.38
2017-09-20T04:34:25.533Z,101303.19
2017-09-20T04:36:52.355Z,101310.63
2017-09-20T04:39:19.189Z,101306.01
2017-09-20T04:41:46.785Z,101308.36
2017-09-20T04:44:13.620Z,101309.04
2017-09-20T04:46:41.222Z,101307.85
2017-09-20T04:49:08.061Z,101303.09
2017-09-20T04:51:34.911Z,101302.91
2017-09-20T04:54:01.795Z,101302.74
2017-09-20T04:56:29.379Z,101301.79
2017-09-20T04:58:56.947Z,101300.53
2017-09-20T05:01:24.512Z,101302.33
2017-09-20T05:03:51.423Z,101304.38
2017-09-20T05:06:18.283Z,101307.15
2017-09-20T05:08:45.179Z,101309.45
2017-09-20T05:11:12.019Z,101303.81
2017-09-20T05:13:38.852Z,101303.72
2017-09-20T05:16:05.728Z,101300.38
2017-09-20T05:18:32.563Z,101309.19
2017-09-20T05:20:59.435Z,101303.45
2017-09-20T05:23:26.291Z,101309.88
2017-09-20T05:25:53.158Z,101307.14
2017-09-20T05:28:20.013Z,101313.96
2017-09-20T05:30:46.936Z,101319.67
2017-09-20T05:33:13.861Z,101319.58
2017-09-20T05:35:40.696Z,101320.23
2017-09-20T05:38:08.315Z,101321.31
2017-09-20T05:40:35.173Z,101320.81
2017-09-20T05:43:02.076Z,101322.13
2017-09-20T05:45:28.974Z,101326.01
2017-09-20T05:47:55.866Z,101315.43
2017-09-20T05:50:22.739Z,101316.34
2017-09-20T05:52:49.581Z,101311.83
2017-09-20T05:55:16.421Z,101309.18
2017-09-20T05:57:43.283Z,101315.35
2017-09-20T06:00:10.165Z,101301.03
2017-09-20T06:02:37.003Z,101300.16
2017-09-20T06:05:03.863Z,101305.39
2017-09-20T06:07:30.773Z,101308.74
2017-09-20T06:09:57.605Z,101311.91
2017-09-20T06:12:24.507Z,101311.54
2017-09-20T06:14:51.362Z,101315.68
2017-09-20T06:17:19.465Z,101318.78
2017-09-20T06:19:46.307Z,101322.31
2017-09-20T06:22:13.177Z,101324.20
2017-09-20T06:24:40.018Z,101331.89
2017-09-20T06:27:06.842Z,101325.33
2017-09-20T06:29:33.690Z,101332.92
2017-09-20T06:32:01.304Z,101328.91
2017-09-20T06:34:28.138Z,101324.38
2017-09-20T06:36:55.713Z,101319.97
2017-09-20T06:39:23.341Z,101322.56
2017-09-20T06:41:50.181Z,101328.32
2017-09-20T06:44:17.030Z,101325.62
2017-09-20T06:46:43.839Z,101322.05
2017-09-20T06:49:10.714Z,101324.27
2017-09-20T06:51:37.566Z,101329.00
2017-09-20T06:54:04.389Z,101334.00
2017-09-20T06:56:31.245Z,101328.37
2017-09-20T06:58:58.092Z,101335.27
2017-09-20T07:01:25.003Z,101331.48
2017-09-20T07:03:51.873Z,101333.91
2017-09-20T07:06:18.707Z,101337.50
2017-09-20T07:08:45.562Z,101334.73
2017-09-20T07:11:12.461Z,101339.63
2017-09-20T07:13:39.276Z,101340.28
2017-09-20T07:16:06.183Z,101335.10
2017-09-20T07:18:33.083Z,101352.52
2017-09-20T07:20:59.947Z,101349.55
2017-09-20T07:23:26.784Z,101348.80
2017-09-20T07:25:54.387Z,101357.02
2017-09-20T07:28:21.206Z,101356.42
2017-09-20T07:30:48.067Z,101353.69
2017-09-20T07:33:14.888Z,101355.70
2017-09-20T07:35:41.715Z,101354.62
2017-09-20T07:38:09.324Z,101358.56
2017-09-20T07:40:36.168Z,101347.20
2017-09-20T07:43:03.004Z,101356.91
2017-09-20T07:45:30.573Z,101352.14
2017-09-20T07:47:57.450Z,101359.81
2017-09-20T07:50:25.012Z,101354.63
2017-09-20T07:52:51.839Z,101360.25
2017-09-20T07:55:18.662Z,101363.05
2017-09-20T07:57:46.239Z,101358.70
2017-09-20T08:00:13.826Z,101354.89
2017-09-20T08:02:40.676Z,101354.20
2017-09-20T08:05:07.527Z,101350.66
2017-09-20T08:07:35.109Z,101355.13
2017-09-20T08:10:02.718Z,101356.02
2017-09-20T08:12:29.600Z,101353.33
2017-09-20T08:14:56.516Z,101362.73
2017-09-20T08:17:24.638Z,101361.84
2017-09-20T08:19:51.530Z,101369.00
2017-09-20T08:22:18.426Z,101366.92
2017-09-20T08:24:46.015Z,101365.42
2017-09-20T08:27:12.877Z,101365.16
2017-09-20T08:29:39.715Z,101363.87
2017-09-20T08:32:07.308Z,101362.67
2017-09-20T08:34:34.960Z,101364.27
2017-09-20T08:37:01.842Z,101367.89
2017-09-20T08:39:29.498Z,101371.30
2017-09-20T08:41:56.363Z,101372.74
2017-09-20T08:44:23.227Z,101369.93
2017-09-20T08:46:50.065Z,101376.64
2017-09-20T08:49:16.901Z,101376.67
2017-09-20T08:51:43.744Z,101360.52
2017-09-20T08:54:10.597Z,101369.57
2017-09-20T08:56:38.179Z,101370.75
2017-09-20T08:59:05.064Z,101367.69
2017-09-20T09:01:31.941Z,101370.20
2017-09-20T09:03:58.798Z,101371.47
2017-09-20T09:06:25.645Z,101373.27
2017-09-20T09:08:52.465Z,101379.75
2017-09-20T09:11:20.083Z,101386.18
2017-09-20T09:13:46.972Z,101383.84
2017-09-20T09:16:13.848Z,101379.13
2017-09-20T09:18:40.707Z,101384.70
2017-09-20T09:21:07.555Z,101384.86
2017-09-20T09:23:34.376Z,101390.84
2017-09-20T09:26:01.254Z,101390.97
2017-09-20T09:28:28.103Z,101394.93
2017-09-20T09:30:54.950Z,101394.09
2017-09-20T09:33:22.543Z,101392.17
2017-09-20T09:35:49.433Z,101395.85
2017-09-20T09:38:16.286Z,101394.28
2017-09-20T09:40:43.105Z,101398.84
2017-09-20T09:43:10.676Z,101390.56
2017-09-20T09:45:38.353Z,101387.91
2017-09-20T09:48:05.910Z,101389.08
2017-09-20T09:50:32.743Z,101386.00
2017-09-20T09:52:59.595Z,101381.86
2017-09-20T09:55:26.441Z,101377.56
2017-09-20T09:57:53.328Z,101385.52
2017-09-20T10:00:20.156Z,101383.59
2017-09-20T10:02:47.808Z,101390.42
2017-09-20T10:05:14.645Z,101384.65
2017-09-20T10:07:41.529Z,101377.41
2017-09-20T10:10:08.419Z,101383.72
2017-09-20T10:12:36.009Z,101380.98
2017-09-20T10:15:02.883Z,101380.65
2017-09-20T10:17:29.794Z,101375.94
2017-09-20T10:19:56.658Z,101373.63
2017-09-20T10:22:23.538Z,101376.17
2017-09-20T10:24:51.122Z,101368.44
2017-09-20T10:27:18.742Z,101375.16
2017-09-20T10:29:45.625Z,101369.63
2017-09-20T10:32:12.459Z,101367.86
2017-09-20T10:34:39.293Z,101368.83
2017-09-20T10:37:06.143Z,101365.61
2017-09-20T10:39:33.722Z,101365.97
2017-09-20T10:42:01.305Z,101365.03
2017-09-20T10:44:28.900Z,101357.73
2017-09-20T10:46:55.750Z,101359.47
2017-09-20T10:49:22.571Z,101357.59
2017-09-20T10:51:50.024Z,101351.84
2017-09-20T10:54:16.859Z,101355.34
2017-09-20T10:56:45.094Z,101349.28
2017-09-20T10:59:11.953Z,101350.45
2017-09-20T11:01:38.794Z,101348.71
2017-09-20T11:04:05.662Z,101344.97
2017-09-20T11:06:32.479Z,101343.01
2017-09-20T11:08:59.403Z,101343.32
2017-09-20T11:11:26.245Z,101343.66
2017-09-20T11:13:53.164Z,101343.23
2017-09-20T11:16:20.722Z,101344.20
2017-09-20T11:18:48.294Z,101341.83
2017-09-20T11:21:15.107Z,101339.31
2017-09-20T11:23:41.928Z,101332.91
2017-09-20T11:26:09.520Z,101345.65
2017-09-20T11:28:36.352Z,101337.97
2017-09-20T11:31:03.199Z,101333.41
2017-09-20T11:33:30.058Z,101330.08
2017-09-20T11:35:56.951Z,101323.17
2017-09-20T11:38:24.522Z,101322.47
2017-09-20T11:40:51.348Z,101326.33
2017-09-20T11:43:18.217Z,101326.72
2017-09-20T11:45:45.076Z,101314.27
2017-09-20T11:48:12.037Z,101310.00
2017-09-20T11:50:38.878Z,101312.20
2017-09-20T11:53:05.828Z,101307.31
2017-09-20T11:55:32.678Z,101305.92
2017-09-20T11:57:59.555Z,101303.70
2017-09-20T12:00:27.156Z,101293.81
2017-09-20T12:02:53.999Z,101295.50
2017-09-20T12:05:20.861Z,101295.38
2017-09-20T12:07:47.720Z,101286.91
2017-09-20T12:10:14.540Z,101286.09
2017-09-20T12:12:41.384Z,101283.44
2017-09-20T12:15:08.201Z,101291.91
2017-09-20T12:17:35.792Z,101294.08
2017-09-20T12:20:03.379Z,101295.06
2017-09-20T12:22:30.249Z,101289.95
2017-09-20T12:24:57.067Z,101289.84
2017-09-20T12:27:23.892Z,101295.28
2017-09-20T12:29:50.718Z,101287.73
2017-09-20T12:32:17.552Z,101277.00
2017-09-20T12:34:44.384Z,101281.81
2017-09-20T12:37:11.242Z,101271.14
2017-09-20T12:39:38.076Z,101277.23
2017-09-20T12:42:04.906Z,101272.48
2017-09-20T12:44:31.792Z,101266.81
2017-09-20T12:47:00.325Z,101271.70
2017-09-20T12:49:27.249Z,101263.45
2017-09-20T12:51:58.716Z,101261.25
2017-09-20T12:54:25.590Z,101265.39
2017-09-20T12:56:52.432Z,101267.36
2017-09-20T12:59:19.294Z,101261.41
2017-09-20T13:01:46.190Z,101266.27
2017-09-20T13:04:13.011Z,101262.83
2017-09-20T13:06:39.882Z,101259.34
2017-09-20T13:09:06.761Z,101257.28
2017-09-20T13:11:33.628Z,101259.22
2017-09-20T13:14:00.489Z,101254.60
2017-09-20T13:16:27.343Z,101246.84
2017-09-20T13:18:54.178Z,101248.57
2017-09-20T13:21:21.065Z,101255.83
2017-09-20T13:23:47.938Z,101249.23
2017-09-20T13:26:14.844Z,101251.95
2017-09-20T13:28:41.694Z,101255.16
2017-09-20T13:31:09.248Z,101250.84
2017-09-20T13:33:36.124Z,101253.70
2017-09-20T13:36:03.005Z,101245.22
2017-09-20T13:38:29.871Z,101241.29
2017-09-20T13:40:56.718Z,101242.86
2017-09-20T13:43:24.315Z,101238.14
2017-09-20T13:45:51.196Z,101242.74
2017-09-20T13:48:18.018Z,101244.87
2017-09-20T13:50:45.616Z,101250.37
2017-09-20T13:53:12.498Z,101248.25
2017-09-20T13:55:39.350Z,101240.75
2017-09-20T13:58:06.261Z,101238.07
2017-09-20T14:00:35.236Z,101251.45
2017-09-20T14:03:04.101Z,101245.38
2017-09-20T14:05:32.818Z,101253.20
2017-09-20T14:08:02.417Z,101248.05
2017-09-20T14:10:29.927Z,101245.89
2017-09-20T14:12:58.694Z,101241.12
2017-09-20T14:15:25.630Z,101244.48
2017-09-20T14:17:52.447Z,101248.80
2017-09-20T14:20:19.302Z,101248.71
2017-09-20T14:22:46.915Z,101252.17
2017-09-20T14:25:13.801Z,101254.17
2017-09-20T14:27:40.687Z,101249.16
2017-09-20T14:30:08.266Z,101252.16
2017-09-20T14:32:35.871Z,101250.45
2017-09-20T14:35:02.747Z,101262.18
2017-09-20T14:37:29.718Z,101257.31
2017-09-20T14:39:56.542Z,101248.44
2017-09-20T14:42:25.305Z,101256.08
2017-09-20T14:44:52.925Z,101251.67
2017-09-20T14:47:20.541Z,101253.92
2017-09-20T14:49:47.385Z,101255.81
2017-09-20T14:52:14.233Z,101258.58
2017-09-20T14:54:41.826Z,101258.91
2017-09-20T14:57:09.726Z,101257.37
2017-09-20T14:59:36.617Z,101259.23
2017-09-20T15:02:03.474Z,101262.65
2017-09-20T15:04:30.377Z,101258.00
2017-09-20T15:06:57.968Z,101260.02
2017-09-20T15:09:24.817Z,101259.98
2017-09-20T15:11:52.389Z,101266.03
2017-09-20T15:14:19.972Z,101264.82
2017-09-20T15:16:47.537Z,101259.81
2017-09-20T15:19:15.119Z,101264.71
2017-09-20T15:21:42.703Z,101264.66
2017-09-20T15:24:09.554Z,101264.16
2017-09-20T15:26:36.403Z,101268.25
2017-09-20T15:29:03.271Z,101265.94
2017-09-20T15:31:30.143Z,101263.61
2017-09-20T15:33:57.735Z,101260.80
2017-09-20T15:36:25.336Z,101269.91
2017-09-20T15:38:52.193Z,101262.58
2017-09-20T15:41:19.024Z,101263.41
2017-09-20T15:43:46.614Z,101256.29
2017-09-20T15:46:14.209Z,101258.78
2017-09-20T15:48:41.123Z,101261.84
2017-09-20T15:51:08.752Z,101259.64
2017-09-20T15:53:35.631Z,101258.38
2017-09-20T15:56:02.498Z,101258.06
2017-09-20T15:58:29.332Z,101261.45
2017-09-20T16:00:56.167Z,101262.23
2017-09-20T16:03:23.783Z,101266.69
2017-09-20T16:05:50.603Z,101261.20
2017-09-20T16:08:18.226Z,101266.23
2017-09-20T16:10:45.121Z,101262.84
2017-09-20T16:13:11.992Z,101265.21
2017-09-20T16:15:38.908Z,101267.37
2017-09-20T16:18:06.491Z,101263.43
2017-09-20T16:20:33.336Z,101270.74
2017-09-20T16:23:00.159Z,101268.88
2017-09-20T16:25:27.012Z,101277.44
2017-09-20T16:27:53.921Z,101273.20
2017-09-20T16:30:20.778Z,101268.13
2017-09-20T16:32:47.638Z,101272.30
2017-09-20T16:35:14.504Z,101271.25
2017-09-20T16:37:41.382Z,101265.58
2017-09-20T16:40:08.264Z,101265.28
2017-09-20T16:42:35.134Z,101274.36
2017-09-20T16:45:02.010Z,101270.98
2017-09-20T16:47:28.917Z,101264.66
2017-09-20T16:49:56.616Z,101282.06
2017-09-20T16:52:23.476Z,101277.03
2017-09-20T16:54:51.036Z,101283.05
2017-09-20T16:57:17.944Z,101271.17
2017-09-20T16:59:44.807Z,101278.09
2017-09-20T17:02:11.973Z,101279.78
2017-09-20T17:04:38.845Z,101277.86
2017-09-20T17:07:05.731Z,101279.90
2017-09-20T17:09:33.530Z,101276.67
2017-09-20T17:12:00.385Z,101277.45
2017-09-20T17:14:27.289Z,101277.97
2017-09-20T17:16:54.141Z,101281.23
2017-09-20T17:19:21.011Z,101281.20
2017-09-20T17:21:47.853Z,101286.48
2017-09-20T17:24:14.718Z,101286.09
2017-09-20T17:26:41.556Z,101288.36
2017-09-20T17:29:08.453Z,101297.31
2017-09-20T17:31:35.401Z,101298.45
2017-09-20T17:34:02.324Z,101294.19
2017-09-20T17:36:29.992Z,101294.30
2017-09-20T17:38:56.833Z,101292.89
2017-09-20T17:41:23.709Z,101295.95
2017-09-20T17:43:50.585Z,101296.78
2017-09-20T17:46:17.464Z,101300.03
2017-09-20T17:48:45.157Z,101303.23
2017-09-20T17:51:12.114Z,101305.40
2017-09-20T17:53:39.740Z,101310.43
2017-09-20T17:56:06.664Z,101323.94
2017-09-20T17:58:33.563Z,101326.86
2017-09-20T18:01:00.452Z,101321.20
2017-09-20T18:03:27.325Z,101319.38
2017-09-20T18:05:55.562Z,101322.91
2017-09-20T18:08:22.470Z,101327.36
2017-09-20T18:10:49.420Z,101333.75
2017-09-20T18:13:16.290Z,101335.55
2017-09-20T18:15:43.152Z,101334.34
2017-09-20T18:18:10.011Z,101341.83
2017-09-20T18:20:37.648Z,101343.74
2017-09-20T18:23:04.551Z,101345.22
2017-09-20T18:25:31.443Z,101349.13
2017-09-20T18:27:59.094Z,101338.45
2017-09-20T18:30:25.944Z,101341.36
2017-09-20T18:32:52.784Z,101343.90
2017-09-20T18:35:19.687Z,101344.20
2017-09-20T18:37:46.566Z,101341.63
2017-09-20T18:40:14.174Z,101341.54
2017-09-20T18:42:41.042Z,101340.34
2017-09-20T18:45:08.056Z,101346.26
2017-09-20T18:47:34.901Z,101351.20
2017-09-20T18:50:01.875Z,101352.60
2017-09-20T18:52:28.850Z,101355.87
2017-09-20T18:54:55.781Z,101352.23
2017-09-20T18:57:22.771Z,101350.22
2017-09-20T18:59:49.656Z,101355.96
2017-09-20T19:02:17.344Z,101357.56
2017-09-20T19:04:44.191Z,101357.51
2017-09-20T19:07:12.183Z,101356.64
2017-09-20T19:09:39.134Z,101363.97
2017-09-20T19:12:06.131Z,101370.98
2017-09-20T19:14:32.977Z,101359.87
2017-09-20T19:17:00.532Z,101353.30
2017-09-20T19:19:27.375Z,101357.00
2017-09-20T19:21:54.265Z,101363.00
2017-09-20T19:24:21.898Z,101355.84
2017-09-20T19:26:48.823Z,101360.69
2017-09-20T19:29:15.774Z,101356.53
2017-09-20T19:31:43.504Z,101352.13
2017-09-20T19:34:10.603Z,101351.94
2017-09-20T19:36:37.533Z,101347.47
2017-09-20T19:39:04.453Z,101352.46
2017-09-20T19:41:32.071Z,101345.80
2017-09-20T19:43:58.988Z,101352.55
2017-09-20T19:46:26.710Z,101354.05
2017-09-20T19:48:53.825Z,101350.35
2017-09-20T19:51:20.756Z,101350.93
2017-09-20T19:53:49.709Z,101349.17
2017-09-20T19:56:17.365Z,101351.05
2017-09-20T19:58:44.212Z,101356.33
2017-09-20T20:01:11.178Z,101354.34
2017-09-20T20:03:38.035Z,101355.94
2017-09-20T20:06:04.882Z,101355.59
2017-09-20T20:08:32.500Z,101357.75
2017-09-20T20:10:59.373Z,101356.97
2017-09-20T20:13:26.274Z,101348.89
2017-09-20T20:15:53.156Z,101345.00
2017-09-20T20:18:20.034Z,101352.90
2017-09-20T20:20:46.888Z,101349.69
2017-09-20T20:23:13.815Z,101352.76
2017-09-20T20:25:40.696Z,101350.91
2017-09-20T20:28:07.519Z,101353.75
2017-09-20T20:30:35.150Z,101352.75
2017-09-20T20:33:02.025Z,101355.70
2017-09-20T20:35:28.852Z,101358.14
2017-09-20T20:37:55.775Z,101361.59
2017-09-20T20:40:23.436Z,101367.59
2017-09-20T20:42:50.259Z,101367.08
2017-09-20T20:45:17.060Z,101365.66
2017-09-20T20:47:43.889Z,101364.04
2017-09-20T20:50:10.765Z,101365.23
2017-09-20T20:52:37.584Z,101366.19
2017-09-20T20:55:04.457Z,101370.62
2017-09-20T20:57:31.348Z,101369.65
2017-09-20T20:59:58.211Z,101379.48
2017-09-20T21:02:25.032Z,101379.44
2017-09-20T21:04:51.854Z,101377.59
2017-09-20T21:07:18.694Z,101376.59
2017-09-20T21:09:45.549Z,101375.46
2017-09-20T21:12:12.442Z,101372.81
2017-09-20T21:14:39.296Z,101370.92
2017-09-20T21:17:06.139Z,101372.54
2017-09-20T21:19:33.004Z,101370.69
2017-09-20T21:21:59.842Z,101369.98
2017-09-20T21:24:26.695Z,101363.78
2017-09-20T21:26:53.550Z,101368.60
2017-09-20T21:29:20.504Z,101367.25
2017-09-20T21:31:47.348Z,101371.31
2017-09-20T21:34:14.970Z,101374.58
2017-09-20T21:36:41.788Z,101377.00
2017-09-20T21:39:09.383Z,101378.14
2017-09-20T21:41:36.263Z,101370.14
2017-09-20T21:44:03.138Z,101370.70
2017-09-20T21:46:30.004Z,101373.09
2017-09-20T21:48:56.866Z,101374.36
2017-09-20T21:51:23.770Z,101371.75
2017-09-20T21:53:51.429Z,101369.63
2017-09-20T21:56:18.316Z,101370.73
2017-09-20T21:58:45.936Z,101371.61
2017-09-20T22:01:12.772Z,101370.48
2017-09-20T22:03:39.651Z,101371.67
2017-09-20T22:06:06.486Z,101368.67
2017-09-20T22:08:34.119Z,101370.05
2017-09-20T22:11:00.964Z,101370.85
2017-09-20T22:13:28.597Z,101366.49
2017-09-20T22:16:14.384Z,101371.25
2017-09-20T22:19:00.158Z,101367.80
2017-09-20T22:21:45.083Z,101371.27
2017-09-20T22:24:30.120Z,101378.39
2017-09-20T22:26:56.569Z,101380.33
2017-09-20T22:29:23.439Z,101371.91
2017-09-20T22:31:50.289Z,101371.86
2017-09-20T22:34:17.191Z,101372.35
2017-09-20T22:36:44.015Z,101368.90
2017-09-20T22:39:10.850Z,101371.14
2017-09-20T22:41:37.661Z,101365.81
2017-09-20T22:44:05.340Z,101371.71
2017-09-20T22:46:32.955Z,101368.73
2017-09-20T22:48:59.795Z,101374.59
2017-09-20T22:51:26.624Z,101378.36
2017-09-20T22:53:53.463Z,101370.88
2017-09-20T22:56:21.365Z,101374.82
2017-09-20T22:58:48.242Z,101375.91
2017-09-20T23:01:15.074Z,101376.46
2017-09-20T23:03:42.851Z,101379.97
2017-09-20T23:06:10.463Z,101381.59
2017-09-20T23:08:38.105Z,101387.00
2017-09-20T23:11:05.782Z,101389.94
2017-09-20T23:13:32.631Z,101383.13
2017-09-20T23:15:59.493Z,101385.31
2017-09-20T23:18:26.379Z,101381.78
2017-09-20T23:20:53.196Z,101380.84
2017-09-20T23:23:20.103Z,101379.73
2017-09-20T23:25:46.938Z,101372.30
2017-09-20T23:28:13.866Z,101381.83
2017-09-20T23:30:40.801Z,101377.55
2017-09-20T23:33:08.648Z,101373.36
2017-09-20T23:35:35.640Z,101375.59
2017-09-20T23:38:02.889Z,101379.69
2017-09-20T23:40:30.558Z,101377.83
2017-09-20T23:42:57.389Z,101379.95
2017-09-20T23:45:24.979Z,101372.48
2017-09-20T23:47:52.560Z,101384.44
2017-09-20T23:50:19.383Z,101375.44
2017-09-20T23:52:46.297Z,101383.94
2017-09-20T23:55:13.145Z,101384.95
2017-09-20T23:57:40.011Z,101390.17
